14:46
Airports
History
Links
Donate
Help keep this website running!
PayPal
Bitcoin
This page is community maintained. The information is intended for PC simulator navigation or reference.
Always use approved charts for navigation.
LETO
Torrejon
Torrejon (LETO)
Ajalvir, Madrid, Spain (28864)
(C)
Lat/Lng:40° 29' 48.29" N / 3° 26' 45.13" W
40.496746 / -3.44587
Elevation:2026'ft / 618mMSL
ID / ICAO:LETO
Runways:1
Longest:(05-23) 3,653.2m / 11,986ft Asphalt
Controlled:Yes
Distance To
Airport ID:
Airport Radio Frequencies
Ground: 118.3
Tower: 122.1, 138.7, 139.3
Approach: 118.4, 118.75, 119.95, 118.9, 125.3
Nearby VORs <50NM
Nearby NDBs
METARUpdated 08-19-17 14:00 GMT
Altimeter: 30.06
Visibility: 6.2 statute miles
Wind: 3 knots (190°)
Temp: 35°c 95°f
Humidity: 20.4%

METAR: LETO 191400Z 19003KT 110V230 CAVOK 35/09 Q1018 NOSIG

(Powered by phpweather)
Runway 05 / 23
Dimensions:3653.2 x 66.1m 11986' x 217'ft
Surface:Asphalt
Edge Lights:High intensity
Runway 05 [A]Runway 23 [B]
Heading:043°TH 223°TH
Lat:
Lng:
40° 29' 5.18"N
3° 27' 38.52"W
40° 30' 31.39"N
3° 25' 51.74"W
ALS:CalvertCalvert
TDZ:Yes, lighted
User Notes and Comments
Google Map
Nearby Airports
(C) Barajas 5.7 NM
LEMD (WX) W 268°
(C) Cuatro Vientos 19.8 NM
LEVS (WX) WSW 244°
(C) Getafe 20.2 NM
LEGT (WX) SW 226°
(U) ROBLEDILLO DE MOHERNANDO 27.3 NM
LERM NNE 22°
(U) OCANA 38.8 NM
LEOC S 184°
(U) FUENTEMILANOS 49.6 NM
LEFM WNW 303°
(C) EL TIETAR 72.8 NM
LETI WSW 256°
VFR Chart
Flight Planning at SkyVector.com